Time;durP1;ratioP1;P1;durP2;ratioP2;P2;SDS_P1;SDS_P2;PMS_P1;PMS_P2;Temp;Humidity;BMP_temperature;BMP_pressure;BME280_temperature;BME280_humidity;BME280_pressure;Samples;Min_cycle;Max_cycle;Signal;HPM_P1;HPM_P2
2024/02/07 00:00:48;;;;;;;0.20;0.03;;;;;;;;;;5024232;28;20079;-83
2024/02/07 00:03:14;;;;;;;0.20;0.10;;;;;;;;;;5005492;28;20041;-86
2024/02/07 00:05:40;;;;;;;0.20;0.00;;;;;;;;;;5008584;28;20048;-85
2024/02/07 00:08:09;;;;;;;0.20;0.00;;;;;;;;;;5004316;28;20083;-87
2024/02/07 00:10:35;;;;;;;0.20;0.00;;;;;;;;;;5010936;28;20045;-88
2024/02/07 00:13:01;;;;;;;0.20;0.00;;;;;;;;;;5035120;28;20166;-86
2024/02/07 00:15:27;;;;;;;0.20;0.00;;;;;;;;;;5023638;28;20495;-86
2024/02/07 00:17:53;;;;;;;0.20;0.00;;;;;;;;;;5018402;28;20033;-88
2024/02/07 00:20:19;;;;;;;0.20;0.00;;;;;;;;;;5040197;28;20056;-86
2024/02/07 00:22:53;;;;;;;0.20;0.00;;;;;;;;;;5006210;28;20041;-88
2024/02/07 00:25:19;;;;;;;0.20;0.10;;;;;;;;;;5012649;28;20037;-88
2024/02/07 00:27:45;;;;;;;0.20;0.10;;;;;;;;;;5015052;28;20055;-86
2024/02/07 00:30:21;;;;;;;0.20;0.08;;;;;;;;;;5025368;28;20037;-87
2024/02/07 00:32:53;;;;;;;0.20;0.00;;;;;;;;;;5012361;28;20382;-86
2024/02/07 00:35:19;;;;;;;0.20;0.10;;;;;;;;;;5043539;28;20087;-84
2024/02/07 00:37:45;;;;;;;0.20;0.00;;;;;;;;;;5012826;28;20065;-86
2024/02/07 00:40:14;;;;;;;0.20;0.00;;;;;;;;;;5014307;28;20045;-84
2024/02/07 00:42:40;;;;;;;0.20;0.10;;;;;;;;;;5027409;28;20528;-84
2024/02/07 00:45:07;;;;;;;0.20;0.10;;;;;;;;;;5008469;28;20045;-87
2024/02/07 00:47:33;;;;;;;0.20;0.08;;;;;;;;;;5010096;28;20030;-86
2024/02/07 00:49:59;;;;;;;0.20;0.10;;;;;;;;;;5013233;28;20068;-85
2024/02/07 00:52:25;;;;;;;0.20;0.00;;;;;;;;;;5022051;28;20168;-83
2024/02/07 00:54:51;;;;;;;0.20;0.00;;;;;;;;;;5026426;28;20120;-85
2024/02/07 00:57:17;;;;;;;0.20;0.10;;;;;;;;;;5011173;28;20041;-87
2024/02/07 00:59:43;;;;;;;0.20;0.10;;;;;;;;;;5014424;28;20048;-85
2024/02/07 01:02:14;;;;;;;0.20;0.10;;;;;;;;;;5010295;28;20032;-85
2024/02/07 01:04:40;;;;;;;0.20;0.00;;;;;;;;;;5024539;28;20052;-83
2024/02/07 01:07:07;;;;;;;0.20;0.10;;;;;;;;;;5007848;28;20055;-86
2024/02/07 01:09:34;;;;;;;0.20;0.00;;;;;;;;;;5013079;28;20071;-84
2024/02/07 01:12:01;;;;;;;0.20;0.10;;;;;;;;;;5031225;28;20037;-86
2024/02/07 01:14:27;;;;;;;0.20;0.08;;;;;;;;;;5009712;28;20041;-85
2024/02/07 01:16:53;;;;;;;0.20;0.10;;;;;;;;;;5014074;28;20037;-84
2024/02/07 01:19:20;;;;;;;0.20;0.10;;;;;;;;;;5009019;28;20041;-83
2024/02/07 01:21:47;;;;;;;0.20;0.10;;;;;;;;;;5027075;28;20126;-86
2024/02/07 01:24:13;;;;;;;0.20;0.10;;;;;;;;;;5037439;28;20473;-87
2024/02/07 01:26:39;;;;;;;0.20;0.10;;;;;;;;;;5007262;28;20086;-87
2024/02/07 01:29:05;;;;;;;0.20;0.10;;;;;;;;;;5025419;28;20037;-87
2024/02/07 01:31:31;;;;;;;0.20;0.10;;;;;;;;;;5025340;28;20045;-84
2024/02/07 01:33:58;;;;;;;0.20;0.00;;;;;;;;;;5008995;28;20079;-85
2024/02/07 01:36:24;;;;;;;0.20;0.00;;;;;;;;;;5007715;28;20044;-85
2024/02/07 01:38:51;;;;;;;0.20;0.00;;;;;;;;;;5005385;28;20041;-82
2024/02/07 01:41:19;;;;;;;0.20;0.10;;;;;;;;;;5012376;28;20513;-85
2024/02/07 01:43:45;;;;;;;0.20;0.00;;;;;;;;;;5011634;28;20098;-85
2024/02/07 01:46:12;;;;;;;0.20;0.10;;;;;;;;;;5010696;28;20137;-84
2024/02/07 01:48:39;;;;;;;0.20;0.10;;;;;;;;;;5026579;28;20052;-86
2024/02/07 01:51:05;;;;;;;0.20;0.10;;;;;;;;;;5043469;28;20681;-84
2024/02/07 01:53:33;;;;;;;0.20;0.10;;;;;;;;;;5026250;28;20037;-88
2024/02/07 01:56:00;;;;;;;0.20;0.10;;;;;;;;;;5012791;28;20068;-88
2024/02/07 01:58:26;;;;;;;0.20;0.00;;;;;;;;;;5027707;28;20052;-88
2024/02/07 02:00:53;;;;;;;0.20;0.10;;;;;;;;;;5025951;28;20044;-84
2024/02/07 02:03:18;;;;;;;0.20;0.10;;;;;;;;;;5012592;28;20131;-86
2024/02/07 02:05:45;;;;;;;0.20;0.10;;;;;;;;;;5012359;28;20124;-87
2024/02/07 02:08:11;;;;;;;0.20;0.00;;;;;;;;;;5022363;28;20041;-87
2024/02/07 02:10:37;;;;;;;0.20;0.10;;;;;;;;;;5007665;28;20037;-88
2024/02/07 02:13:04;;;;;;;0.20;0.05;;;;;;;;;;5023683;28;20417;-88
2024/02/07 02:15:30;;;;;;;0.20;0.00;;;;;;;;;;5005323;28;20037;-86
2024/02/07 02:17:56;;;;;;;0.20;0.00;;;;;;;;;;5012405;28;20040;-86
2024/02/07 02:20:22;;;;;;;0.20;0.10;;;;;;;;;;5009035;28;20034;-85
2024/02/07 02:23:04;;;;;;;0.20;0.03;;;;;;;;;;5011388;28;20078;-85
2024/02/07 02:25:47;;;;;;;0.20;0.10;;;;;;;;;;5014789;28;20032;-84
2024/02/07 02:28:18;;;;;;;;;;;;;;;;;;5011279;28;20637;-85
2024/02/07 02:30:56;;;;;;;0.20;0.10;;;;;;;;;;5012571;28;20639;-83
2024/02/07 02:33:25;;;;;;;0.20;0.10;;;;;;;;;;5041097;28;20076;-88
2024/02/07 02:35:53;;;;;;;0.20;0.10;;;;;;;;;;5060307;22;20200;-85
2024/02/07 02:38:19;;;;;;;0.20;0.00;;;;;;;;;;5102924;28;20044;-84
2024/02/07 02:40:47;;;;;;;0.20;0.10;;;;;;;;;;5082776;28;20475;-85
2024/02/07 02:43:13;;;;;;;0.20;0.10;;;;;;;;;;5087356;28;20050;-83
2024/02/07 02:45:39;;;;;;;0.20;0.10;;;;;;;;;;5076586;28;20035;-84
2024/02/07 02:48:05;;;;;;;0.20;0.10;;;;;;;;;;5070197;28;20071;-85
2024/02/07 02:50:32;;;;;;;0.20;0.00;;;;;;;;;;5084795;28;20589;-85
2024/02/07 02:52:58;;;;;;;0.20;0.10;;;;;;;;;;5065974;28;20071;-85
2024/02/07 02:55:29;;;;;;;0.20;0.10;;;;;;;;;;5071170;28;20515;-86
2024/02/07 02:57:58;;;;;;;0.20;0.00;;;;;;;;;;5062021;28;20035;-83
2024/02/07 03:00:26;;;;;;;0.20;0.00;;;;;;;;;;5085744;28;20040;-83
2024/02/07 03:02:55;;;;;;;0.20;0.00;;;;;;;;;;5087534;28;20041;-84
2024/02/07 03:05:38;;;;;;;0.20;0.10;;;;;;;;;;5087112;28;20043;-83
2024/02/07 03:08:05;;;;;;;0.20;0.10;;;;;;;;;;5088628;28;20040;-83
2024/02/07 03:10:34;;;;;;;0.20;0.08;;;;;;;;;;5091369;28;20412;-83
2024/02/07 03:13:03;;;;;;;0.20;0.10;;;;;;;;;;5072846;28;20040;-84
2024/02/07 03:15:30;;;;;;;0.20;0.10;;;;;;;;;;5068556;28;20062;-86
2024/02/07 03:17:56;;;;;;;0.20;0.00;;;;;;;;;;5088951;28;20053;-85
2024/02/07 03:20:23;;;;;;;0.20;0.10;;;;;;;;;;5089171;28;20096;-85
2024/02/07 03:22:49;;;;;;;0.20;0.00;;;;;;;;;;5085328;28;20115;-84
2024/02/07 03:25:20;;;;;;;0.20;0.00;;;;;;;;;;5111563;28;20036;-87
2024/02/07 03:27:46;;;;;;;0.20;0.00;;;;;;;;;;5089329;28;20040;-84
2024/02/07 03:30:16;;;;;;;0.20;0.10;;;;;;;;;;5068594;28;20040;-83
2024/02/07 03:32:44;;;;;;;0.20;0.10;;;;;;;;;;5087149;28;20028;-83
2024/02/07 03:35:11;;;;;;;0.20;0.10;;;;;;;;;;5067948;28;20043;-83
2024/02/07 03:37:39;;;;;;;0.20;0.10;;;;;;;;;;5087330;28;20093;-85
2024/02/07 03:40:06;;;;;;;0.20;0.00;;;;;;;;;;5084183;28;20040;-86
2024/02/07 03:42:33;;;;;;;0.20;0.00;;;;;;;;;;5086705;28;20044;-83
2024/02/07 03:45:03;;;;;;;0.20;0.00;;;;;;;;;;5101760;28;20085;-83
2024/02/07 03:47:30;;;;;;;0.20;0.00;;;;;;;;;;5080683;28;20052;-83
2024/02/07 03:49:57;;;;;;;0.20;0.10;;;;;;;;;;5075671;28;20504;-84
2024/02/07 03:52:23;;;;;;;0.20;0.10;;;;;;;;;;5107299;28;20131;-84
2024/02/07 03:54:52;;;;;;;0.20;0.00;;;;;;;;;;5089219;28;20075;-84
2024/02/07 03:57:19;;;;;;;0.20;0.08;;;;;;;;;;5087443;28;20639;-84
2024/02/07 03:59:45;;;;;;;0.20;0.10;;;;;;;;;;5071704;28;20085;-85
2024/02/07 04:02:21;;;;;;;0.20;0.10;;;;;;;;;;5083442;28;20035;-84
2024/02/07 04:04:49;;;;;;;0.20;0.10;;;;;;;;;;5068500;28;20531;-84
2024/02/07 04:07:16;;;;;;;0.20;0.10;;;;;;;;;;5083482;28;20488;-84
2024/02/07 04:09:43;;;;;;;0.20;0.10;;;;;;;;;;5085886;28;20069;-84
2024/02/07 05:17:14;;;;;;;0.20;0.10;;;;;;;;;;5076444;28;20075;-84
2024/02/07 05:19:40;;;;;;;0.20;0.10;;;;;;;;;;5078065;28;20036;-84
2024/02/07 05:22:06;;;;;;;0.20;0.05;;;;;;;;;;5066054;28;20048;-86
2024/02/07 05:24:33;;;;;;;0.20;0.10;;;;;;;;;;5063242;28;20507;-86
2024/02/07 05:27:00;;;;;;;0.20;0.03;;;;;;;;;;5080722;28;20562;-84
2024/02/07 05:29:26;;;;;;;0.20;0.00;;;;;;;;;;5065051;28;20043;-85
2024/02/07 05:31:52;;;;;;;0.20;0.00;;;;;;;;;;5070006;28;20055;-85
2024/02/07 05:34:18;;;;;;;0.20;0.10;;;;;;;;;;5085840;28;20032;-85
2024/02/07 05:36:44;;;;;;;0.28;0.25;;;;;;;;;;5086048;28;20055;-86
2024/02/07 05:39:10;;;;;;;0.20;0.10;;;;;;;;;;5065123;28;20036;-86
2024/02/07 05:41:37;;;;;;;0.20;0.10;;;;;;;;;;5069452;28;20395;-85
2024/02/07 05:44:03;;;;;;;0.20;0.10;;;;;;;;;;5085325;28;20757;-85
2024/02/07 05:46:30;;;;;;;0.20;0.10;;;;;;;;;;5068567;28;20043;-85
2024/02/07 05:48:56;;;;;;;0.20;0.10;;;;;;;;;;5064450;28;20043;-83
2024/02/07 05:51:22;;;;;;;0.20;0.00;;;;;;;;;;5083970;28;20046;-84
2024/02/07 05:53:49;;;;;;;0.20;0.00;;;;;;;;;;5063999;28;20032;-85
2024/02/07 05:56:15;;;;;;;0.20;0.00;;;;;;;;;;5065364;28;20046;-85
2024/02/07 05:58:41;;;;;;;0.20;0.10;;;;;;;;;;5086226;28;20063;-85
2024/02/07 06:01:08;;;;;;;0.20;0.00;;;;;;;;;;5083285;28;20043;-85
2024/02/07 06:03:35;;;;;;;0.20;0.10;;;;;;;;;;5070526;28;20510;-85
2024/02/07 06:06:01;;;;;;;0.57;0.57;;;;;;;;;;5064629;28;20048;-86
2024/02/07 06:08:27;;;;;;;0.20;0.10;;;;;;;;;;5063470;28;20197;-85
2024/02/07 06:10:54;;;;;;;0.20;0.00;;;;;;;;;;5061073;28;20557;-84
2024/02/07 06:13:21;;;;;;;0.20;0.03;;;;;;;;;;5080939;28;20035;-85
2024/02/07 06:15:47;;;;;;;0.20;0.00;;;;;;;;;;5062717;28;20043;-86
2024/02/07 06:18:13;;;;;;;0.20;0.10;;;;;;;;;;5084855;28;20040;-87
2024/02/07 06:20:39;;;;;;;0.20;0.10;;;;;;;;;;5071581;28;20036;-86
2024/02/07 06:23:05;;;;;;;0.20;0.10;;;;;;;;;;5082971;28;20036;-86
2024/02/07 06:25:31;;;;;;;0.20;0.10;;;;;;;;;;5063748;28;20131;-85
2024/02/07 06:27:57;;;;;;;0.20;0.00;;;;;;;;;;5073149;28;20068;-86
2024/02/07 06:30:23;;;;;;;0.20;0.10;;;;;;;;;;5069250;28;20093;-86
2024/02/07 06:32:49;;;;;;;0.20;0.10;;;;;;;;;;5086534;28;20064;-85
2024/02/07 06:35:15;;;;;;;0.20;0.10;;;;;;;;;;5086382;28;20065;-85
2024/02/07 06:37:42;;;;;;;0.20;0.10;;;;;;;;;;5072734;28;20032;-85
2024/02/07 06:40:08;;;;;;;0.20;0.10;;;;;;;;;;5067445;28;20052;-85
2024/02/07 06:42:34;;;;;;;0.20;0.10;;;;;;;;;;5067816;28;20036;-85
2024/02/07 06:45:00;;;;;;;0.20;0.10;;;;;;;;;;5083648;28;20072;-86
2024/02/07 06:47:26;;;;;;;0.20;0.10;;;;;;;;;;5078815;28;20503;-84
2024/02/07 06:49:52;;;;;;;0.20;0.00;;;;;;;;;;5068980;28;20073;-86
2024/02/07 06:52:18;;;;;;;0.20;0.10;;;;;;;;;;5083069;28;20070;-86
2024/02/07 06:54:45;;;;;;;0.20;0.00;;;;;;;;;;5068697;28;20396;-86
2024/02/07 06:57:11;;;;;;;0.20;0.00;;;;;;;;;;5064600;28;20043;-86
2024/02/07 06:59:37;;;;;;;0.20;0.10;;;;;;;;;;5066719;28;20123;-86
2024/02/07 07:02:04;;;;;;;0.20;0.00;;;;;;;;;;5069684;28;20412;-86
2024/02/07 07:04:30;;;;;;;0.20;0.10;;;;;;;;;;5064324;28;20511;-85
2024/02/07 07:06:56;;;;;;;0.20;0.00;;;;;;;;;;5066645;28;20149;-86
2024/02/07 07:09:22;;;;;;;0.20;0.10;;;;;;;;;;5071071;28;20053;-85
2024/02/07 07:11:48;;;;;;;0.20;0.08;;;;;;;;;;5068529;28;20036;-86
2024/02/07 07:14:14;;;;;;;0.20;0.10;;;;;;;;;;5085183;28;20127;-85
2024/02/07 07:16:40;;;;;;;0.20;0.10;;;;;;;;;;5069679;28;20118;-86
2024/02/07 07:19:06;;;;;;;0.20;0.10;;;;;;;;;;5069543;28;20032;-86
2024/02/07 07:21:32;;;;;;;0.20;0.10;;;;;;;;;;5066611;28;20040;-86
2024/02/07 07:23:58;;;;;;;0.20;0.10;;;;;;;;;;5084494;28;20549;-86
2024/02/07 07:26:24;;;;;;;0.20;0.00;;;;;;;;;;5065481;28;20638;-86
2024/02/07 07:28:50;;;;;;;0.20;0.10;;;;;;;;;;5072682;28;20563;-86
2024/02/07 07:31:16;;;;;;;0.20;0.00;;;;;;;;;;5064476;28;20040;-86
2024/02/07 07:33:42;;;;;;;0.20;0.10;;;;;;;;;;5067998;28;20097;-86
2024/02/07 07:36:08;;;;;;;0.20;0.00;;;;;;;;;;5064711;28;20040;-86
2024/02/07 07:38:34;;;;;;;0.43;0.40;;;;;;;;;;5082312;28;20044;-86
2024/02/07 07:41:02;;;;;;;0.20;0.10;;;;;;;;;;5083112;28;20503;-86
2024/02/07 07:43:28;;;;;;;0.20;0.00;;;;;;;;;;5067527;28;20048;-86
2024/02/07 07:45:55;;;;;;;0.20;0.10;;;;;;;;;;5064306;28;20032;-86
2024/02/07 07:48:21;;;;;;;0.20;0.10;;;;;;;;;;5068190;28;20040;-86
2024/02/07 07:50:47;;;;;;;0.20;0.10;;;;;;;;;;5082479;28;20047;-85
2024/02/07 07:53:13;;;;;;;0.20;0.10;;;;;;;;;;5084769;28;20050;-85
2024/02/07 07:55:39;;;;;;;0.20;0.00;;;;;;;;;;5067806;28;20051;-86
2024/02/07 07:58:05;;;;;;;0.20;0.10;;;;;;;;;;5068627;28;20590;-86
2024/02/07 08:00:31;;;;;;;0.20;0.00;;;;;;;;;;5079748;28;20080;-86
2024/02/07 08:02:57;;;;;;;0.30;0.30;;;;;;;;;;5064914;28;20428;-86
2024/02/07 08:05:23;;;;;;;0.20;0.10;;;;;;;;;;5067813;28;20043;-88
2024/02/07 08:07:49;;;;;;;0.20;0.00;;;;;;;;;;5066344;28;20103;-86
2024/02/07 08:10:15;;;;;;;0.63;0.63;;;;;;;;;;5063253;28;20503;-85
2024/02/07 08:12:41;;;;;;;0.20;0.10;;;;;;;;;;5083965;28;20062;-86
2024/02/07 08:15:07;;;;;;;0.20;0.00;;;;;;;;;;5084300;28;20036;-85
2024/02/07 08:17:33;;;;;;;0.20;0.00;;;;;;;;;;5070004;28;20042;-86
2024/02/07 08:19:59;;;;;;;0.20;0.10;;;;;;;;;;5103798;28;20119;-86
2024/02/07 08:22:25;;;;;;;0.20;0.10;;;;;;;;;;5065723;28;20098;-84
2024/02/07 08:24:53;;;;;;;0.20;0.10;;;;;;;;;;5083947;28;20516;-85
2024/02/07 08:27:19;;;;;;;0.20;0.00;;;;;;;;;;5065655;28;20040;-86
2024/02/07 08:29:45;;;;;;;0.20;0.00;;;;;;;;;;5064567;28;20036;-84
2024/02/07 08:32:12;;;;;;;0.20;0.10;;;;;;;;;;5069509;28;20042;-86
2024/02/07 08:40:09;;;;;;;;;;;;;;;;;;;;;
2024/02/07 08:46:39;;;;;;;0.20;0.10;;;;;;;;;;5038738;28;20295;-87
2024/02/07 08:49:25;;;;;;;0.20;0.00;;;;;;;;;;5040969;28;20053;-85
2024/02/07 08:52:36;;;;;;;0.20;0.10;;;;;;;;;;5032647;28;20037;-86
2024/02/07 09:19:17;;;;;;;0.20;0.00;;;;;;;;;;5037820;28;20041;-86
2024/02/07 09:21:53;;;;;;;0.20;0.00;;;;;;;;;;5030458;28;20041;-86
2024/02/07 09:24:38;;;;;;;0.20;0.00;;;;;;;;;;5046374;28;20049;-86
2024/02/07 09:27:20;;;;;;;0.20;0.10;;;;;;;;;;5053674;28;20045;-86
2024/02/07 09:29:46;;;;;;;0.20;0.03;;;;;;;;;;5061776;22;20052;-86
2024/02/07 09:32:12;;;;;;;0.20;0.10;;;;;;;;;;5043579;28;20515;-85
2024/02/07 09:34:45;;;;;;;0.20;0.10;;;;;;;;;;5067699;28;20047;-86
2024/02/07 09:37:11;;;;;;;0.20;0.10;;;;;;;;;;5065909;28;20094;-86
2024/02/07 09:39:37;;;;;;;0.20;0.10;;;;;;;;;;5067254;28;20046;-87
2024/02/07 09:42:04;;;;;;;0.20;0.00;;;;;;;;;;5045941;28;20445;-86
2024/02/07 09:44:31;;;;;;;0.20;0.10;;;;;;;;;;5049872;28;20531;-86
2024/02/07 09:47:00;;;;;;;0.20;0.10;;;;;;;;;;5069237;28;20039;-86
2024/02/07 09:49:28;;;;;;;0.20;0.10;;;;;;;;;;5064404;28;20159;-85
2024/02/07 09:51:54;;;;;;;0.20;0.08;;;;;;;;;;5062577;28;20067;-86
2024/02/07 09:54:20;;;;;;;0.20;0.13;;;;;;;;;;5052343;28;20051;-86
2024/02/07 09:56:47;;;;;;;0.20;0.00;;;;;;;;;;5052937;28;20039;-86
2024/02/07 09:59:13;;;;;;;0.20;0.00;;;;;;;;;;5048034;28;20484;-87
2024/02/07 10:01:39;;;;;;;0.20;0.10;;;;;;;;;;5052841;28;20509;-86
2024/02/07 10:04:13;;;;;;;0.20;0.10;;;;;;;;;;5046649;28;20128;-87
2024/02/07 10:06:39;;;;;;;0.20;0.10;;;;;;;;;;5052224;28;20131;-86
2024/02/07 10:09:07;;;;;;;0.20;0.10;;;;;;;;;;5053599;28;20127;-87
2024/02/07 10:11:34;;;;;;;0.20;0.10;;;;;;;;;;5052759;28;20064;-86
2024/02/07 10:14:00;;;;;;;0.20;0.10;;;;;;;;;;5064802;28;20291;-86
2024/02/07 10:16:27;;;;;;;0.20;0.10;;;;;;;;;;5044590;28;20032;-86
2024/02/07 10:18:54;;;;;;;0.20;0.00;;;;;;;;;;5064780;28;20119;-86
2024/02/07 10:21:22;;;;;;;0.20;0.08;;;;;;;;;;5051231;28;20040;-86
2024/02/07 10:23:48;;;;;;;0.20;0.10;;;;;;;;;;5047038;28;20444;-86
2024/02/07 10:26:23;;;;;;;0.20;0.10;;;;;;;;;;5044825;28;20174;-87
2024/02/07 10:28:57;;;;;;;0.20;0.10;;;;;;;;;;5060292;28;20060;-86
2024/02/07 10:31:23;;;;;;;0.20;0.00;;;;;;;;;;5076051;28;20528;-86
2024/02/07 10:33:50;;;;;;;0.20;0.10;;;;;;;;;;5046362;28;20134;-87
2024/02/07 10:36:16;;;;;;;0.20;0.10;;;;;;;;;;5048165;28;20070;-86
2024/02/07 10:38:42;;;;;;;0.20;0.00;;;;;;;;;;5049980;28;20131;-84
2024/02/07 10:41:08;;;;;;;0.20;0.08;;;;;;;;;;5049260;28;20028;-86
2024/02/07 10:43:37;;;;;;;0.20;0.10;;;;;;;;;;5047683;28;20070;-86
2024/02/07 10:46:13;;;;;;;0.20;0.10;;;;;;;;;;5063742;28;20447;-86
2024/02/07 10:48:39;;;;;;;0.20;0.10;;;;;;;;;;5061736;28;20424;-87
2024/02/07 10:51:05;;;;;;;0.20;0.10;;;;;;;;;;5048503;28;20087;-85
2024/02/07 10:53:35;;;;;;;0.20;0.10;;;;;;;;;;5045821;28;20040;-86
2024/02/07 10:56:02;;;;;;;0.20;0.00;;;;;;;;;;5047681;28;20056;-86
2024/02/07 10:58:29;;;;;;;0.20;0.10;;;;;;;;;;5064815;28;20033;-86
2024/02/07 11:00:56;;;;;;;0.20;0.10;;;;;;;;;;5054937;28;20040;-86
2024/02/07 11:03:22;;;;;;;0.20;0.10;;;;;;;;;;5063452;28;20035;-86
2024/02/07 11:05:49;;;;;;;0.20;0.10;;;;;;;;;;5044159;28;20040;-85
2024/02/07 11:08:15;;;;;;;0.20;0.10;;;;;;;;;;5052801;28;20503;-85
2024/02/07 11:10:41;;;;;;;0.20;0.10;;;;;;;;;;5081530;28;20036;-86
2024/02/07 11:13:11;;;;;;;0.20;0.10;;;;;;;;;;5052141;28;20036;-85
2024/02/07 11:15:37;;;;;;;0.20;0.10;;;;;;;;;;5041524;28;20099;-84
2024/02/07 11:18:04;;;;;;;0.20;0.10;;;;;;;;;;5064818;28;20032;-87
2024/02/07 11:20:31;;;;;;;0.20;0.10;;;;;;;;;;5045177;28;20146;-85
2024/02/07 11:22:58;;;;;;;0.20;0.00;;;;;;;;;;5048236;28;20044;-85
2024/02/07 11:25:26;;;;;;;0.20;0.10;;;;;;;;;;5048263;28;20104;-86
2024/02/07 11:27:52;;;;;;;0.20;0.10;;;;;;;;;;5050972;28;20586;-86
2024/02/07 11:30:20;;;;;;;0.20;0.10;;;;;;;;;;5063404;28;20044;-86
2024/02/07 11:32:51;;;;;;;0.20;0.10;;;;;;;;;;5044500;28;20419;-86
2024/02/07 11:35:20;;;;;;;0.20;0.10;;;;;;;;;;5047651;28;20091;-86
2024/02/07 11:37:50;;;;;;;0.20;0.00;;;;;;;;;;5050420;28;20035;-86
2024/02/07 11:40:17;;;;;;;0.20;0.10;;;;;;;;;;5045937;28;20509;-87
2024/02/07 11:42:43;;;;;;;0.20;0.10;;;;;;;;;;5051653;28;20036;-86
2024/02/07 11:45:13;;;;;;;0.20;0.10;;;;;;;;;;5048760;28;20044;-88
2024/02/07 11:47:42;;;;;;;0.20;0.00;;;;;;;;;;5067472;28;20044;-86
2024/02/07 11:50:12;;;;;;;0.20;0.00;;;;;;;;;;5068272;28;20097;-87
2024/02/07 11:52:42;;;;;;;0.20;0.10;;;;;;;;;;5051150;28;20043;-84
2024/02/07 11:55:10;;;;;;;0.20;0.10;;;;;;;;;;5078101;28;20047;-85
2024/02/07 11:57:39;;;;;;;0.20;0.10;;;;;;;;;;5064555;28;20122;-86
2024/02/07 12:00:08;;;;;;;0.20;0.10;;;;;;;;;;5042517;28;20072;-86
2024/02/07 12:02:37;;;;;;;0.20;0.00;;;;;;;;;;5056346;28;20044;-86
2024/02/07 12:05:04;;;;;;;0.20;0.08;;;;;;;;;;5041428;28;20040;-85
2024/02/07 12:07:30;;;;;;;0.20;0.00;;;;;;;;;;5051451;28;20050;-86
2024/02/07 12:09:56;;;;;;;0.20;0.10;;;;;;;;;;5049305;28;20044;-85
2024/02/07 12:12:22;;;;;;;0.20;0.10;;;;;;;;;;5046594;28;20036;-87
2024/02/07 12:14:50;;;;;;;0.20;0.00;;;;;;;;;;5043877;28;20064;-88
2024/02/07 12:17:16;;;;;;;0.20;0.10;;;;;;;;;;5049023;28;20475;-87
2024/02/07 12:19:42;;;;;;;0.20;0.05;;;;;;;;;;5047417;28;20039;-86
2024/02/07 12:22:09;;;;;;;0.20;0.10;;;;;;;;;;5050626;28;20309;-87
2024/02/07 12:24:35;;;;;;;0.20;0.10;;;;;;;;;;5048926;28;20044;-87
2024/02/07 12:27:15;;;;;;;0.20;0.10;;;;;;;;;;5047374;28;20082;-87
2024/02/07 12:29:51;;;;;;;0.20;0.10;;;;;;;;;;5042689;28;20041;-88
2024/02/07 12:32:18;;;;;;;0.20;0.20;;;;;;;;;;5043804;28;20464;-87
2024/02/07 12:34:47;;;;;;;0.20;0.10;;;;;;;;;;5054437;28;20072;-85
2024/02/07 12:37:14;;;;;;;0.20;0.08;;;;;;;;;;5045116;28;20111;-88
2024/02/07 12:39:40;;;;;;;0.20;0.00;;;;;;;;;;5041943;28;20372;-88
2024/02/07 12:42:13;;;;;;;0.20;0.00;;;;;;;;;;5047925;28;20087;-87
2024/02/07 12:44:39;;;;;;;0.20;0.10;;;;;;;;;;5049497;28;20048;-87
2024/02/07 12:47:07;;;;;;;0.20;0.10;;;;;;;;;;5063957;28;20081;-87
2024/02/07 12:49:34;;;;;;;0.20;0.10;;;;;;;;;;5049374;28;20048;-87
2024/02/07 12:52:02;;;;;;;0.20;0.10;;;;;;;;;;5050805;28;20074;-88
2024/02/07 12:54:29;;;;;;;0.20;0.00;;;;;;;;;;5047475;28;20032;-86
2024/02/07 12:56:56;;;;;;;0.20;0.10;;;;;;;;;;5061588;28;20043;-87
2024/02/07 12:59:28;;;;;;;0.20;0.10;;;;;;;;;;5042769;28;20071;-86
2024/02/07 13:01:57;;;;;;;0.20;0.10;;;;;;;;;;5042712;28;20036;-87
2024/02/07 13:04:26;;;;;;;0.20;0.10;;;;;;;;;;5044035;28;20044;-87
2024/02/07 13:06:52;;;;;;;0.20;0.00;;;;;;;;;;5044882;28;20040;-86
2024/02/07 13:09:18;;;;;;;0.20;0.10;;;;;;;;;;5050730;28;20051;-86
2024/02/07 13:11:44;;;;;;;0.20;0.10;;;;;;;;;;5051856;28;20051;-88
2024/02/07 13:14:10;;;;;;;0.20;0.10;;;;;;;;;;5064541;28;20500;-87
2024/02/07 13:16:36;;;;;;;0.20;0.03;;;;;;;;;;5043611;28;20040;-86
2024/02/07 13:19:05;;;;;;;0.20;0.10;;;;;;;;;;5049564;28;20496;-86
2024/02/07 13:21:31;;;;;;;0.20;0.03;;;;;;;;;;5046544;28;20164;-88
2024/02/07 13:23:57;;;;;;;0.20;0.10;;;;;;;;;;5048893;28;20052;-87
2024/02/07 13:26:24;;;;;;;0.20;0.10;;;;;;;;;;5067396;28;20526;-89
2024/02/07 13:28:50;;;;;;;0.20;0.00;;;;;;;;;;5062071;28;20044;-86
2024/02/07 13:31:18;;;;;;;0.20;0.10;;;;;;;;;;5065698;28;20094;-88
2024/02/07 13:33:44;;;;;;;0.20;0.10;;;;;;;;;;5055152;28;20056;-85
2024/02/07 13:36:11;;;;;;;0.20;0.10;;;;;;;;;;5064868;28;20060;-86
2024/02/07 13:38:37;;;;;;;0.20;0.00;;;;;;;;;;5045590;28;20078;-87
2024/02/07 13:41:03;;;;;;;0.20;0.10;;;;;;;;;;5049276;28;20462;-87
2024/02/07 13:43:29;;;;;;;0.20;0.10;;;;;;;;;;5047318;28;20166;-87
2024/02/07 13:45:55;;;;;;;0.20;0.10;;;;;;;;;;5066360;28;20082;-87
2024/02/07 13:48:22;;;;;;;0.20;0.10;;;;;;;;;;5045748;28;20067;-85
2024/02/07 13:50:48;;;;;;;0.30;0.15;;;;;;;;;;5053171;28;20088;-85
2024/02/07 13:53:14;;;;;;;0.20;0.00;;;;;;;;;;5064156;28;20088;-85
2024/02/07 13:55:40;;;;;;;0.20;0.00;;;;;;;;;;5046840;28;20453;-85
2024/02/07 13:58:06;;;;;;;0.20;0.10;;;;;;;;;;5052530;28;20030;-86
2024/02/07 14:00:32;;;;;;;0.20;0.10;;;;;;;;;;5063055;28;20051;-85
2024/02/07 14:02:58;;;;;;;0.20;0.10;;;;;;;;;;5063258;28;20024;-87
2024/02/07 14:05:24;;;;;;;0.20;0.00;;;;;;;;;;5052921;28;20054;-87
2024/02/07 14:07:50;;;;;;;0.20;0.10;;;;;;;;;;5053133;28;20040;-87
2024/02/07 14:10:16;;;;;;;0.20;0.10;;;;;;;;;;5052904;28;20515;-87
2024/02/07 14:12:42;;;;;;;0.20;0.00;;;;;;;;;;5057769;28;20115;-86
2024/02/07 14:15:11;;;;;;;0.20;0.00;;;;;;;;;;5048406;28;20133;-87
2024/02/07 14:17:37;;;;;;;0.20;0.10;;;;;;;;;;5049901;28;20051;-87
2024/02/07 14:20:03;;;;;;;0.20;0.00;;;;;;;;;;5047940;28;20031;-86
2024/02/07 14:22:29;;;;;;;0.20;0.00;;;;;;;;;;5041923;28;20036;-87
2024/02/07 14:24:55;;;;;;;0.20;0.10;;;;;;;;;;5049847;28;20446;-86
2024/02/07 14:27:21;;;;;;;0.20;0.13;;;;;;;;;;5049727;28;20050;-87
2024/02/07 14:29:49;;;;;;;0.20;0.03;;;;;;;;;;5048915;28;20119;-87
2024/02/07 14:32:16;;;;;;;0.20;0.00;;;;;;;;;;5051647;28;20044;-87
2024/02/07 14:34:42;;;;;;;0.20;0.00;;;;;;;;;;5055678;28;20605;-87
2024/02/07 14:37:08;;;;;;;0.20;0.00;;;;;;;;;;5068612;28;20040;-87
2024/02/07 14:39:34;;;;;;;0.20;0.00;;;;;;;;;;5076765;28;20040;-87
2024/02/07 14:42:02;;;;;;;0.20;0.00;;;;;;;;;;5048114;28;20069;-88
2024/02/07 14:44:28;;;;;;;0.20;0.00;;;;;;;;;;5043421;28;20452;-86
2024/02/07 14:46:54;;;;;;;0.20;0.00;;;;;;;;;;5057141;28;20076;-87
2024/02/07 14:49:20;;;;;;;0.20;0.00;;;;;;;;;;5049642;28;20054;-87
2024/02/07 14:51:46;;;;;;;0.20;0.10;;;;;;;;;;5047368;28;20091;-87
2024/02/07 14:54:14;;;;;;;0.20;0.10;;;;;;;;;;5052511;28;20044;-86
2024/02/07 14:56:40;;;;;;;0.20;0.10;;;;;;;;;;5067011;28;20047;-87
2024/02/07 14:59:07;;;;;;;0.20;0.10;;;;;;;;;;5052688;28;20459;-86
2024/02/07 15:01:33;;;;;;;0.20;0.10;;;;;;;;;;5053258;28;20039;-86
2024/02/07 15:03:59;;;;;;;0.20;0.10;;;;;;;;;;5052148;28;20517;-87
2024/02/07 15:06:25;;;;;;;0.20;0.10;;;;;;;;;;5068242;28;20100;-87
2024/02/07 15:08:51;;;;;;;0.20;0.10;;;;;;;;;;5058251;28;20063;-87
2024/02/07 15:11:17;;;;;;;0.20;0.10;;;;;;;;;;5050593;28;20078;-87
2024/02/07 15:13:43;;;;;;;0.20;0.10;;;;;;;;;;5068849;28;20547;-87
2024/02/07 15:16:10;;;;;;;0.20;0.10;;;;;;;;;;5065244;28;20035;-87
2024/02/07 15:18:36;;;;;;;0.20;0.10;;;;;;;;;;5065477;28;20324;-87
2024/02/07 15:21:02;;;;;;;0.20;0.10;;;;;;;;;;5051555;28;20065;-86
2024/02/07 15:23:28;;;;;;;0.20;0.10;;;;;;;;;;5051785;28;20085;-87
2024/02/07 15:25:54;;;;;;;0.20;0.10;;;;;;;;;;5049678;28;20036;-87
2024/02/07 15:28:21;;;;;;;0.20;0.00;;;;;;;;;;5052117;28;20059;-87
2024/02/07 15:30:47;;;;;;;0.20;0.10;;;;;;;;;;5120844;22;20024;-84
2024/02/07 15:33:14;;;;;;;0.20;0.10;;;;;;;;;;5065891;28;20033;-84
2024/02/07 15:35:40;;;;;;;0.20;0.05;;;;;;;;;;5072833;28;20055;-83
2024/02/07 15:38:06;;;;;;;0.20;0.10;;;;;;;;;;5091425;28;20048;-83
2024/02/07 15:40:32;;;;;;;0.20;0.10;;;;;;;;;;5074904;28;20028;-85
2024/02/07 15:42:59;;;;;;;0.20;0.03;;;;;;;;;;5067625;28;20029;-85
2024/02/07 15:45:25;;;;;;;0.20;0.00;;;;;;;;;;5072337;28;20051;-85
2024/02/07 15:47:51;;;;;;;0.20;0.10;;;;;;;;;;5082397;28;20035;-86
2024/02/07 15:50:52;;;;;;;0.20;0.10;;;;;;;;;;5066014;28;20037;-85
2024/02/07 15:53:36;;;;;;;0.20;0.10;;;;;;;;;;5194375;22;20073;-83
2024/02/07 15:56:02;;;;;;;0.20;0.10;;;;;;;;;;5017953;28;20025;-83
2024/02/07 15:58:28;;;;;;;0.20;0.10;;;;;;;;;;5022550;28;20022;-85
2024/02/07 16:00:57;;;;;;;0.20;0.10;;;;;;;;;;5016844;28;20060;-85
2024/02/07 16:03:24;;;;;;;0.20;0.00;;;;;;;;;;5012254;28;20038;-85
2024/02/07 16:08:18;;;;;;;0.20;0.10;;;;;;;;;;5021907;28;20077;-86
2024/02/07 16:10:44;;;;;;;0.20;0.10;;;;;;;;;;5023841;28;20042;-87
2024/02/07 16:13:10;;;;;;;0.20;0.10;;;;;;;;;;5020043;28;20128;-84
2024/02/07 16:15:38;;;;;;;0.20;0.00;;;;;;;;;;5008491;28;20537;-85
2024/02/07 16:18:04;;;;;;;0.20;0.10;;;;;;;;;;5003524;28;20041;-84
2024/02/07 16:20:30;;;;;;;0.20;0.10;;;;;;;;;;4997305;28;20062;-84
2024/02/07 16:22:56;;;;;;;0.20;0.10;;;;;;;;;;5003188;28;20410;-85
2024/02/07 16:25:22;;;;;;;0.20;0.10;;;;;;;;;;5003564;28;20357;-84